Time;durP1;ratioP1;P1;durP2;ratioP2;P2;SDS_P1;SDS_P2;PMS_P1;PMS_P2;Temp;Humidity;BMP_temperature;BMP_pressure;BME280_temperature;BME280_humidity;BME280_pressure;Samples;Min_cycle;Max_cycle;Signal;HPM_P1;HPM_P2
2023/12/05 00:02:08;;;;;;;8.25;4.68;;;;;;;;;;5011777;28;20040;-90
2023/12/05 00:04:37;;;;;;;6.85;4.38;;;;;;;;;;5032461;28;20041;-90
2023/12/05 00:07:03;;;;;;;8.98;4.78;;;;;;;;;;5008819;28;20524;-89
2023/12/05 00:09:29;;;;;;;7.40;4.60;;;;;;;;;;5033633;28;20035;-89
2023/12/05 00:11:55;;;;;;;7.38;3.85;;;;;;;;;;5025377;28;20033;-90
2023/12/05 00:14:22;;;;;;;7.18;4.38;;;;;;;;;;5036002;28;20060;-90
2023/12/05 00:16:48;;;;;;;8.93;4.40;;;;;;;;;;5037270;28;20048;-90
2023/12/05 00:19:17;;;;;;;8.82;4.63;;;;;;;;;;5047399;28;20080;-90
2023/12/05 00:21:43;;;;;;;8.98;5.45;;;;;;;;;;5021582;28;20052;-90
2023/12/05 00:24:17;;;;;;;7.40;4.00;;;;;;;;;;5017104;28;20119;-90
2023/12/05 00:26:43;;;;;;;9.40;4.72;;;;;;;;;;5030683;28;20561;-90
2023/12/05 00:29:09;;;;;;;7.43;4.32;;;;;;;;;;5011231;28;20381;-90
2023/12/05 00:31:35;;;;;;;9.55;5.15;;;;;;;;;;5024805;28;20104;-89
2023/12/05 00:34:01;;;;;;;7.43;4.97;;;;;;;;;;5030266;28;20033;-89
2023/12/05 00:36:34;;;;;;;9.38;5.07;;;;;;;;;;5037526;28;20021;-90
2023/12/05 00:39:00;;;;;;;10.18;5.22;;;;;;;;;;5036264;28;20056;-90
2023/12/05 00:41:29;;;;;;;8.35;4.72;;;;;;;;;;5035849;28;20044;-90
2023/12/05 00:43:58;;;;;;;7.53;4.35;;;;;;;;;;5054863;28;20025;-90
2023/12/05 00:46:24;;;;;;;9.88;5.07;;;;;;;;;;5045306;28;20045;-89
2023/12/05 00:48:50;;;;;;;7.85;4.30;;;;;;;;;;5049022;28;20039;-90
2023/12/05 00:51:16;;;;;;;5.97;3.45;;;;;;;;;;5033432;28;20085;-89
2023/12/05 00:53:44;;;;;;;8.18;5.07;;;;;;;;;;5034304;28;20045;-90
2023/12/05 00:56:14;;;;;;;9.13;4.20;;;;;;;;;;5023281;28;20045;-89
2023/12/05 00:58:41;;;;;;;7.15;4.68;;;;;;;;;;5015608;28;20042;-89
2023/12/05 01:01:08;;;;;;;12.48;7.53;;;;;;;;;;5010476;28;20438;-88
2023/12/05 01:03:34;;;;;;;8.25;5.43;;;;;;;;;;5012172;28;20033;-91
2023/12/05 01:06:00;;;;;;;8.32;4.60;;;;;;;;;;5011887;28;20051;-89
2023/12/05 01:08:26;;;;;;;9.93;5.30;;;;;;;;;;5014970;28;20377;-90
2023/12/05 01:10:52;;;;;;;8.70;4.93;;;;;;;;;;5010197;28;20535;-90
2023/12/05 01:13:18;;;;;;;10.57;5.50;;;;;;;;;;5007444;28;20061;-90
2023/12/05 01:15:44;;;;;;;8.70;5.38;;;;;;;;;;5014424;28;20427;-89
2023/12/05 01:18:11;;;;;;;9.00;4.72;;;;;;;;;;5028027;28;20124;-90
2023/12/05 01:20:37;;;;;;;9.75;5.22;;;;;;;;;;5025805;28;20041;-90
2023/12/05 01:23:03;;;;;;;9.95;5.70;;;;;;;;;;5022168;28;20381;-90
2023/12/05 01:25:29;;;;;;;10.23;6.10;;;;;;;;;;5010385;28;20105;-90
2023/12/05 01:27:55;;;;;;;9.63;6.25;;;;;;;;;;5009166;28;20076;-88
2023/12/05 01:30:21;;;;;;;10.10;5.88;;;;;;;;;;5029662;28;20450;-88
2023/12/05 01:32:47;;;;;;;8.20;4.65;;;;;;;;;;5018616;28;20047;-88
2023/12/05 01:35:16;;;;;;;8.07;5.32;;;;;;;;;;5028628;28;20400;-89
2023/12/05 01:37:42;;;;;;;9.25;5.78;;;;;;;;;;5028310;28;20033;-88
2023/12/05 01:40:09;;;;;;;7.50;4.07;;;;;;;;;;5036343;28;20512;-88
2023/12/05 01:42:38;;;;;;;7.68;4.43;;;;;;;;;;5017171;28;20055;-88
2023/12/05 01:45:05;;;;;;;9.98;5.47;;;;;;;;;;5028484;28;20107;-87
2023/12/05 01:47:34;;;;;;;10.18;5.25;;;;;;;;;;5018339;28;20489;-88
2023/12/05 01:50:00;;;;;;;9.00;5.13;;;;;;;;;;5027915;28;20137;-88
2023/12/05 01:52:27;;;;;;;10.77;6.00;;;;;;;;;;5013819;28;20312;-88
2023/12/05 01:54:53;;;;;;;9.88;5.38;;;;;;;;;;5024709;28;20033;-88
2023/12/05 01:57:20;;;;;;;8.93;6.00;;;;;;;;;;5029167;28;20037;-88
2023/12/05 01:59:46;;;;;;;10.30;5.78;;;;;;;;;;5016896;28;20055;-88
2023/12/05 02:02:13;;;;;;;8.15;4.57;;;;;;;;;;5009136;28;20084;-88
2023/12/05 02:04:39;;;;;;;10.27;6.10;;;;;;;;;;5030343;28;20048;-88
2023/12/05 02:07:05;;;;;;;10.38;6.38;;;;;;;;;;5012609;28;20121;-88
2023/12/05 02:09:32;;;;;;;8.05;5.32;;;;;;;;;;5010347;28;20072;-88
2023/12/05 02:11:58;;;;;;;8.63;5.30;;;;;;;;;;5012151;28;20041;-88
2023/12/05 02:14:24;;;;;;;11.73;7.03;;;;;;;;;;5028533;28;20037;-87
2023/12/05 02:16:57;;;;;;;9.65;6.22;;;;;;;;;;5012356;28;20033;-88
2023/12/05 02:19:35;;;;;;;11.02;6.05;;;;;;;;;;5013265;28;20044;-88
2023/12/05 02:22:05;;;;;;;10.18;6.10;;;;;;;;;;5027104;28;20037;-88
2023/12/05 02:24:37;;;;;;;11.38;6.38;;;;;;;;;;5015113;28;20037;-88
2023/12/05 02:27:17;;;;;;;12.18;5.93;;;;;;;;;;5009247;28;20047;-88
2023/12/05 02:29:52;;;;;;;8.98;5.88;;;;;;;;;;5012000;28;20403;-88
2023/12/05 02:32:18;;;;;;;10.65;5.88;;;;;;;;;;5026702;28;20041;-88
2023/12/05 02:34:45;;;;;;;11.48;6.30;;;;;;;;;;5028251;28;20042;-88
2023/12/05 02:37:18;;;;;;;10.52;5.88;;;;;;;;;;5030105;28;20033;-88
2023/12/05 02:39:56;;;;;;;10.82;6.40;;;;;;;;;;5014000;28;20029;-88
2023/12/05 02:42:23;;;;;;;9.45;5.15;;;;;;;;;;5027896;28;20052;-89
2023/12/05 02:44:51;;;;;;;10.90;6.45;;;;;;;;;;5012250;28;20063;-88
2023/12/05 02:47:18;;;;;;;10.27;5.80;;;;;;;;;;5027755;28;20045;-89
2023/12/05 02:49:44;;;;;;;8.80;5.47;;;;;;;;;;5007078;28;20055;-90
2023/12/05 02:52:10;;;;;;;13.27;7.45;;;;;;;;;;5007445;28;20123;-89
2023/12/05 02:54:36;;;;;;;9.90;6.07;;;;;;;;;;5012995;28;20068;-89
2023/12/05 02:57:04;;;;;;;11.60;6.55;;;;;;;;;;5027465;28;20033;-88
2023/12/05 02:59:30;;;;;;;10.77;5.75;;;;;;;;;;5030900;28;20072;-90
2023/12/05 03:01:56;;;;;;;11.27;6.20;;;;;;;;;;5028947;28;20033;-90
2023/12/05 03:04:22;;;;;;;10.18;6.18;;;;;;;;;;5015684;28;20407;-89
2023/12/05 03:06:48;;;;;;;9.90;5.72;;;;;;;;;;5012302;28;20037;-89
2023/12/05 03:09:14;;;;;;;11.68;6.05;;;;;;;;;;5011939;28;20127;-89
2023/12/05 03:11:40;;;;;;;10.77;5.95;;;;;;;;;;5013947;28;20080;-89
2023/12/05 03:14:06;;;;;;;11.52;6.93;;;;;;;;;;5014398;28;20442;-89
2023/12/05 03:16:32;;;;;;;12.18;6.50;;;;;;;;;;5015443;28;20047;-89
2023/12/05 03:19:02;;;;;;;12.57;7.47;;;;;;;;;;5047710;28;20103;-89
2023/12/05 03:21:28;;;;;;;10.57;6.20;;;;;;;;;;5011933;28;20040;-89
2023/12/05 03:23:53;;;;;;;12.57;6.68;;;;;;;;;;5009922;28;20392;-90
2023/12/05 03:26:23;;;;;;;8.23;5.55;;;;;;;;;;5045299;28;20078;-88
2023/12/05 03:28:50;;;;;;;11.70;6.63;;;;;;;;;;5024360;28;20041;-88
2023/12/05 03:31:16;;;;;;;12.10;7.05;;;;;;;;;;5011821;28;20037;-90
2023/12/05 03:33:42;;;;;;;9.52;5.88;;;;;;;;;;5024345;28;20112;-88
2023/12/05 03:36:09;;;;;;;10.45;5.43;;;;;;;;;;5013519;28;20558;-89
2023/12/05 03:38:35;;;;;;;12.43;6.90;;;;;;;;;;5032017;28;20033;-89
2023/12/05 03:41:01;;;;;;;11.30;7.10;;;;;;;;;;5016734;28;20037;-89
2023/12/05 03:43:27;;;;;;;10.35;5.88;;;;;;;;;;5015025;28;20039;-89
2023/12/05 03:45:53;;;;;;;13.95;7.63;;;;;;;;;;5019251;28;20041;-88
2023/12/05 03:48:19;;;;;;;10.68;6.40;;;;;;;;;;5019339;28;20052;-89
2023/12/05 03:50:45;;;;;;;11.40;7.32;;;;;;;;;;5023459;28;20104;-89
2023/12/05 03:53:11;;;;;;;10.93;6.65;;;;;;;;;;5021292;28;20025;-89
2023/12/05 03:55:37;;;;;;;10.93;6.68;;;;;;;;;;5013274;28;20451;-89
2023/12/05 03:58:03;;;;;;;12.00;7.45;;;;;;;;;;5036845;28;20041;-89
2023/12/05 04:00:29;;;;;;;14.13;7.28;;;;;;;;;;5029138;28;20495;-89
2023/12/05 04:02:55;;;;;;;14.32;7.63;;;;;;;;;;5026789;28;20037;-88
2023/12/05 04:05:21;;;;;;;13.27;7.10;;;;;;;;;;5015123;28;20037;-88
2023/12/05 04:07:47;;;;;;;13.45;7.18;;;;;;;;;;5010567;28;20573;-89
2023/12/05 04:10:14;;;;;;;13.68;7.03;;;;;;;;;;5019087;28;20464;-89
2023/12/05 04:12:40;;;;;;;9.55;5.97;;;;;;;;;;5008984;28;20488;-88
2023/12/05 04:15:07;;;;;;;16.35;9.57;;;;;;;;;;5023740;28;20048;-90
2023/12/05 04:17:33;;;;;;;13.40;6.80;;;;;;;;;;5022964;28;20029;-89
2023/12/05 04:19:59;;;;;;;12.55;7.45;;;;;;;;;;5010640;28;20037;-89
2023/12/05 04:22:25;;;;;;;11.43;6.25;;;;;;;;;;5015538;28;20033;-89
2023/12/05 04:24:51;;;;;;;13.60;6.95;;;;;;;;;;5012324;28;20392;-88
2023/12/05 04:27:17;;;;;;;14.07;7.45;;;;;;;;;;5024590;28;20518;-88
2023/12/05 04:29:43;;;;;;;12.52;6.72;;;;;;;;;;5011231;28;20117;-89
2023/12/05 04:32:09;;;;;;;14.50;8.32;;;;;;;;;;5011549;28;20045;-89
2023/12/05 04:34:35;;;;;;;14.00;8.18;;;;;;;;;;5010768;28;20108;-88
2023/12/05 04:37:02;;;;;;;14.18;7.78;;;;;;;;;;5026254;28;20071;-90
2023/12/05 04:39:28;;;;;;;14.38;7.05;;;;;;;;;;5016524;28;20030;-89
2023/12/05 04:41:53;;;;;;;13.75;7.07;;;;;;;;;;5011350;28;20034;-91
2023/12/05 04:44:21;;;;;;;12.23;6.72;;;;;;;;;;5014518;28;22165;-89
2023/12/05 04:46:47;;;;;;;14.50;7.90;;;;;;;;;;5007776;28;20068;-88
2023/12/05 04:49:13;;;;;;;13.45;7.53;;;;;;;;;;5011474;28;20065;-89
2023/12/05 04:51:39;;;;;;;14.63;7.85;;;;;;;;;;5010326;28;20041;-89
2023/12/05 04:54:05;;;;;;;14.23;7.93;;;;;;;;;;5010857;28;20079;-88
2023/12/05 04:56:31;;;;;;;13.70;7.57;;;;;;;;;;5010965;28;20450;-89
2023/12/05 04:58:57;;;;;;;13.65;7.20;;;;;;;;;;5009742;28;20041;-88
2023/12/05 05:01:23;;;;;;;13.65;8.23;;;;;;;;;;5028234;28;20040;-88
2023/12/05 05:03:49;;;;;;;15.52;8.27;;;;;;;;;;5009129;28;20033;-89
2023/12/05 05:06:15;;;;;;;19.42;9.82;;;;;;;;;;5014909;28;20045;-89
2023/12/05 05:08:42;;;;;;;14.60;8.45;;;;;;;;;;5017145;28;20395;-90
2023/12/05 05:11:08;;;;;;;16.02;8.40;;;;;;;;;;5010766;28;20037;-89
2023/12/05 05:13:34;;;;;;;18.58;9.02;;;;;;;;;;5009879;28;20033;-89
2023/12/05 05:16:03;;;;;;;14.85;7.95;;;;;;;;;;5026411;28;20044;-90
2023/12/05 05:18:29;;;;;;;14.90;7.97;;;;;;;;;;5029466;28;20037;-88
2023/12/05 05:20:55;;;;;;;17.13;8.35;;;;;;;;;;5028719;28;20087;-89
2023/12/05 05:23:21;;;;;;;13.93;7.38;;;;;;;;;;5010055;28;20501;-91
2023/12/05 05:25:47;;;;;;;14.43;7.57;;;;;;;;;;5017559;28;20096;-89
2023/12/05 05:28:13;;;;;;;13.93;7.45;;;;;;;;;;5012556;28;20090;-90
2023/12/05 05:30:39;;;;;;;16.50;8.43;;;;;;;;;;5007485;28;20488;-90
2023/12/05 05:33:05;;;;;;;17.13;8.00;;;;;;;;;;5029556;28;20041;-89
2023/12/05 05:35:31;;;;;;;15.88;7.65;;;;;;;;;;5011074;28;20041;-89
2023/12/05 05:37:57;;;;;;;15.68;8.52;;;;;;;;;;5017715;28;20083;-89
2023/12/05 05:40:23;;;;;;;15.57;7.80;;;;;;;;;;5008765;28;20099;-89
2023/12/05 05:42:49;;;;;;;19.70;8.32;;;;;;;;;;5012400;28;20368;-89
2023/12/05 05:45:15;;;;;;;16.30;10.13;;;;;;;;;;5025275;28;20056;-89
2023/12/05 05:47:41;;;;;;;18.38;8.65;;;;;;;;;;5029639;28;20427;-88
2023/12/05 05:50:08;;;;;;;17.88;7.88;;;;;;;;;;5025487;28;20500;-89
2023/12/05 05:52:34;;;;;;;15.15;8.10;;;;;;;;;;5006750;28;20507;-88
2023/12/05 05:55:03;;;;;;;16.75;8.77;;;;;;;;;;5012845;28;20088;-88
2023/12/05 05:57:30;;;;;;;12.43;6.30;;;;;;;;;;5006503;28;20400;-88
2023/12/05 05:59:56;;;;;;;22.23;8.82;;;;;;;;;;5026276;28;20094;-88
2023/12/05 06:02:22;;;;;;;11.65;5.40;;;;;;;;;;5009724;28;20128;-89
2023/12/05 06:04:48;;;;;;;16.60;9.13;;;;;;;;;;5012713;28;20037;-89
2023/12/05 06:07:14;;;;;;;15.13;7.93;;;;;;;;;;5022090;28;20120;-88
2023/12/05 06:09:41;;;;;;;16.95;9.32;;;;;;;;;;5025160;28;20384;-89
2023/12/05 06:12:08;;;;;;;16.10;7.80;;;;;;;;;;5023330;28;20064;-90
2023/12/05 06:14:35;;;;;;;16.17;8.82;;;;;;;;;;5009860;28;20033;-89
2023/12/05 06:17:02;;;;;;;17.25;9.13;;;;;;;;;;5006545;28;20037;-90
2023/12/05 06:19:28;;;;;;;14.52;8.13;;;;;;;;;;5008758;28;20042;-88
2023/12/05 06:21:54;;;;;;;15.77;7.82;;;;;;;;;;5006268;28;20043;-89
2023/12/05 06:24:20;;;;;;;17.08;8.40;;;;;;;;;;5019534;28;20075;-88
2023/12/05 06:26:46;;;;;;;18.83;8.20;;;;;;;;;;5009791;28;20496;-88
2023/12/05 06:29:12;;;;;;;16.33;8.15;;;;;;;;;;5011134;28;20045;-88
2023/12/05 06:31:38;;;;;;;16.40;9.15;;;;;;;;;;5033097;28;20045;-88
2023/12/05 06:34:05;;;;;;;15.07;7.53;;;;;;;;;;5019009;28;20500;-89
2023/12/05 06:36:31;;;;;;;14.15;8.85;;;;;;;;;;5015554;28;20063;-88
2023/12/05 06:38:57;;;;;;;16.67;8.65;;;;;;;;;;5018647;28;20496;-88
2023/12/05 06:41:23;;;;;;;17.88;9.43;;;;;;;;;;5017502;28;20073;-88
2023/12/05 06:43:49;;;;;;;16.30;8.55;;;;;;;;;;5012708;28;20044;-90
2023/12/05 06:46:15;;;;;;;19.40;10.30;;;;;;;;;;5011770;28;20044;-89
2023/12/05 06:48:42;;;;;;;14.18;7.88;;;;;;;;;;5013215;28;20079;-89
2023/12/05 06:51:09;;;;;;;17.30;8.75;;;;;;;;;;5012635;28;20075;-88
2023/12/05 06:53:35;;;;;;;16.95;7.68;;;;;;;;;;5012346;28;20148;-87
2023/12/05 06:56:01;;;;;;;16.42;7.93;;;;;;;;;;5027080;28;20063;-89
2023/12/05 06:58:27;;;;;;;16.45;8.43;;;;;;;;;;5012730;28;20049;-88
2023/12/05 07:00:53;;;;;;;17.83;8.32;;;;;;;;;;5010569;28;20125;-89
2023/12/05 07:03:19;;;;;;;18.92;8.60;;;;;;;;;;5015951;28;20535;-86
2023/12/05 07:05:45;;;;;;;17.17;8.10;;;;;;;;;;5030470;28;20115;-88
2023/12/05 07:08:11;;;;;;;18.75;8.57;;;;;;;;;;5013123;28;20414;-89
2023/12/05 07:10:37;;;;;;;15.55;8.70;;;;;;;;;;5018904;28;20122;-89
2023/12/05 07:13:03;;;;;;;13.25;6.85;;;;;;;;;;5020160;28;20037;-91
2023/12/05 07:15:29;;;;;;;14.88;7.60;;;;;;;;;;5021398;28;20072;-89
2023/12/05 07:17:55;;;;;;;15.55;8.73;;;;;;;;;;5019012;28;20040;-88
2023/12/05 07:20:21;;;;;;;19.58;9.25;;;;;;;;;;5017296;28;20038;-90
2023/12/05 07:22:47;;;;;;;16.40;7.93;;;;;;;;;;5016184;28;20055;-87
2023/12/05 07:25:13;;;;;;;16.33;8.27;;;;;;;;;;5030092;28;20069;-88
2023/12/05 07:27:39;;;;;;;16.83;8.73;;;;;;;;;;5010488;28;20041;-87
2023/12/05 07:30:05;;;;;;;16.35;7.90;;;;;;;;;;5029456;28;20029;-89
2023/12/05 07:32:31;;;;;;;14.18;7.13;;;;;;;;;;5005745;28;20034;-89
2023/12/05 07:34:57;;;;;;;15.82;6.70;;;;;;;;;;5025317;28;20030;-89
2023/12/05 07:37:23;;;;;;;16.45;8.27;;;;;;;;;;5007625;28;20041;-87
2023/12/05 07:39:49;;;;;;;16.98;8.05;;;;;;;;;;5017946;28;20090;-87
2023/12/05 07:42:15;;;;;;;18.25;8.18;;;;;;;;;;5017244;28;20044;-88
2023/12/05 07:44:41;;;;;;;20.80;9.93;;;;;;;;;;5010392;28;20045;-89
2023/12/05 07:47:08;;;;;;;15.35;7.88;;;;;;;;;;5012181;28;20033;-89
2023/12/05 07:49:34;;;;;;;15.02;8.63;;;;;;;;;;5010067;28;20057;-86
2023/12/05 07:52:01;;;;;;;18.20;9.25;;;;;;;;;;5027365;28;20055;-87
2023/12/05 07:54:27;;;;;;;20.45;10.38;;;;;;;;;;5028012;28;20116;-89
2023/12/05 07:56:53;;;;;;;17.08;8.45;;;;;;;;;;5031120;28;20083;-89
2023/12/05 07:59:19;;;;;;;19.55;8.52;;;;;;;;;;5025680;28;20384;-86
2023/12/05 08:01:46;;;;;;;14.18;6.93;;;;;;;;;;5011061;28;20037;-84
2023/12/05 08:04:12;;;;;;;19.33;9.85;;;;;;;;;;5029629;28;20127;-85
2023/12/05 08:06:38;;;;;;;19.58;10.40;;;;;;;;;;5032400;28;20403;-86
2023/12/05 08:09:07;;;;;;;18.77;10.52;;;;;;;;;;5007040;28;20454;-86
2023/12/05 08:11:35;;;;;;;21.08;12.23;;;;;;;;;;5026361;28;20040;-87
2023/12/05 08:14:01;;;;;;;18.63;9.88;;;;;;;;;;5027188;28;20061;-86
2023/12/05 08:16:27;;;;;;;16.08;8.27;;;;;;;;;;5010080;28;20098;-86
2023/12/05 08:18:53;;;;;;;18.30;9.82;;;;;;;;;;5010003;28;20037;-86
2023/12/05 08:21:19;;;;;;;18.27;9.38;;;;;;;;;;5010644;28;20548;-86
2023/12/05 08:23:45;;;;;;;16.38;8.43;;;;;;;;;;5027003;28;20115;-84
2023/12/05 08:26:11;;;;;;;15.18;7.45;;;;;;;;;;5009818;28;20110;-85
2023/12/05 08:28:38;;;;;;;25.50;12.85;;;;;;;;;;5026088;28;20045;-87
2023/12/05 08:31:04;;;;;;;18.98;10.18;;;;;;;;;;5027135;28;20407;-86
2023/12/05 08:33:30;;;;;;;17.65;9.55;;;;;;;;;;5024372;28;20037;-86
2023/12/05 08:35:56;;;;;;;17.75;8.68;;;;;;;;;;5009030;28;20321;-86
2023/12/05 08:38:22;;;;;;;17.73;9.98;;;;;;;;;;5014085;28;20032;-86
2023/12/05 08:40:48;;;;;;;18.15;9.05;;;;;;;;;;5010530;28;20492;-86
2023/12/05 08:43:14;;;;;;;16.02;8.18;;;;;;;;;;5024599;28;20064;-87
2023/12/05 08:45:40;;;;;;;20.20;9.45;;;;;;;;;;5025515;28;20044;-86
2023/12/05 08:48:06;;;;;;;15.85;7.93;;;;;;;;;;5025591;28;20052;-86
2023/12/05 08:50:33;;;;;;;14.52;6.90;;;;;;;;;;5025246;28;20063;-87
2023/12/05 08:52:59;;;;;;;16.48;9.27;;;;;;;;;;5012856;28;20038;-86
2023/12/05 08:55:25;;;;;;;16.63;8.13;;;;;;;;;;5031824;28;20033;-86
2023/12/05 08:57:51;;;;;;;15.80;9.02;;;;;;;;;;5005682;28;20120;-86
2023/12/05 09:00:17;;;;;;;16.98;7.88;;;;;;;;;;5010411;28;20187;-86
2023/12/05 09:02:43;;;;;;;15.20;7.55;;;;;;;;;;5044957;28;20035;-86
2023/12/05 09:05:09;;;;;;;15.40;7.90;;;;;;;;;;5023113;28;20049;-86
2023/12/05 09:07:35;;;;;;;18.05;9.95;;;;;;;;;;5013748;28;20037;-85
2023/12/05 09:10:01;;;;;;;22.02;11.88;;;;;;;;;;5031740;28;20052;-86
2023/12/05 09:12:27;;;;;;;19.35;9.82;;;;;;;;;;5013370;28;20037;-86
2023/12/05 09:14:53;;;;;;;16.63;9.68;;;;;;;;;;5009445;28;20055;-87
2023/12/05 09:17:19;;;;;;;15.95;9.25;;;;;;;;;;5004206;28;20055;-86
2023/12/05 09:19:45;;;;;;;20.42;7.88;;;;;;;;;;5029756;28;20128;-87
2023/12/05 09:22:11;;;;;;;17.20;9.43;;;;;;;;;;5010242;28;20128;-87
2023/12/05 09:24:37;;;;;;;16.23;8.27;;;;;;;;;;5033933;28;20059;-80
2023/12/05 09:27:05;;;;;;;14.52;6.97;;;;;;;;;;5031428;28;20113;-84
2023/12/05 09:29:31;;;;;;;16.00;8.05;;;;;;;;;;5023949;28;20085;-83
2023/12/05 09:31:57;;;;;;;14.52;7.93;;;;;;;;;;5026748;28;20040;-83
2023/12/05 09:34:23;;;;;;;15.32;7.53;;;;;;;;;;5010805;28;20403;-88
2023/12/05 09:36:49;;;;;;;20.73;8.45;;;;;;;;;;5012095;28;20088;-83
2023/12/05 09:39:15;;;;;;;18.42;9.23;;;;;;;;;;5014245;28;20120;-83
2023/12/05 09:41:46;;;;;;;17.38;8.48;;;;;;;;;;5027113;28;20033;-83
2023/12/05 09:44:12;;;;;;;;;;;;;;;;;;5027801;28;20045;-83
2023/12/05 09:46:40;;;;;;;13.48;7.35;;;;;;;;;;5028156;28;19924;-83
2023/12/05 09:49:09;;;;;;;16.75;8.02;;;;;;;;;;5025309;28;20056;-84
2023/12/05 09:51:37;;;;;;;14.75;8.07;;;;;;;;;;5027504;28;20076;-83
2023/12/05 09:54:03;;;;;;;16.23;7.97;;;;;;;;;;5025063;28;20507;-83
2023/12/05 09:56:29;;;;;;;15.65;7.32;;;;;;;;;;5026697;28;20038;-83
2023/12/05 09:58:55;;;;;;;17.50;7.78;;;;;;;;;;5034689;28;20044;-84
2023/12/05 10:01:23;;;;;;;14.85;7.57;;;;;;;;;;5011721;28;20047;-84
2023/12/05 10:03:57;;;;;;;13.63;6.20;;;;;;;;;;5015048;28;20044;-83
2023/12/05 10:06:25;;;;;;;17.48;9.23;;;;;;;;;;5030998;28;20399;-82
2023/12/05 10:08:52;;;;;;;18.23;8.93;;;;;;;;;;5027565;28;20492;-83
2023/12/05 10:11:21;;;;;;;17.98;7.22;;;;;;;;;;5029335;28;20435;-83
2023/12/05 10:13:47;;;;;;;16.02;8.02;;;;;;;;;;5026425;28;20059;-83
2023/12/05 10:16:13;;;;;;;17.05;8.88;;;;;;;;;;5033375;28;20048;-83
2023/12/05 10:18:39;;;;;;;13.55;7.38;;;;;;;;;;5029148;28;20040;-84
2023/12/05 10:21:06;;;;;;;11.57;6.20;;;;;;;;;;5027870;28;20029;-84
2023/12/05 10:23:32;;;;;;;10.75;6.32;;;;;;;;;;5014383;28;20130;-84
2023/12/05 10:25:58;;;;;;;15.88;7.45;;;;;;;;;;5016784;28;20072;-84
2023/12/05 10:28:25;;;;;;;15.48;8.05;;;;;;;;;;5013016;28;20044;-84
2023/12/05 10:30:51;;;;;;;13.95;7.38;;;;;;;;;;5032267;28;20040;-85
2023/12/05 10:33:18;;;;;;;15.77;7.90;;;;;;;;;;5029163;28;20532;-85
2023/12/05 10:35:45;;;;;;;14.82;7.75;;;;;;;;;;5027703;28;20404;-85
2023/12/05 10:38:13;;;;;;;13.80;6.90;;;;;;;;;;5031534;28;20060;-84
2023/12/05 10:40:51;;;;;;;13.75;7.55;;;;;;;;;;5032138;28;20388;-85
2023/12/05 10:43:17;;;;;;;15.35;7.45;;;;;;;;;;5050100;28;20044;-85
2023/12/05 10:45:44;;;;;;;16.23;7.63;;;;;;;;;;5029012;28;20071;-85
2023/12/05 10:48:14;;;;;;;17.20;7.43;;;;;;;;;;5028413;28;20049;-85
2023/12/05 10:50:40;;;;;;;15.10;7.40;;;;;;;;;;5022701;28;20052;-85
2023/12/05 10:53:06;;;;;;;14.13;7.50;;;;;;;;;;5026779;28;20045;-85
2023/12/05 10:55:33;;;;;;;17.50;9.07;;;;;;;;;;5027277;28;20040;-85
2023/12/05 10:57:59;;;;;;;19.20;9.10;;;;;;;;;;5032881;28;20040;-86
2023/12/05 11:00:26;;;;;;;15.75;8.88;;;;;;;;;;5037812;28;20040;-85
2023/12/05 11:02:53;;;;;;;15.65;7.30;;;;;;;;;;5033287;28;20029;-86
2023/12/05 11:05:19;;;;;;;18.35;10.65;;;;;;;;;;5036438;28;20059;-86
2023/12/05 11:07:46;;;;;;;14.77;6.80;;;;;;;;;;5027811;28;20041;-87
2023/12/05 11:10:12;;;;;;;15.27;7.45;;;;;;;;;;5034460;28;20045;-88
2023/12/05 11:12:40;;;;;;;13.80;7.22;;;;;;;;;;5026637;28;20044;-88
2023/12/05 11:15:07;;;;;;;17.17;8.38;;;;;;;;;;5046234;28;20113;-86
2023/12/05 11:17:40;;;;;;;12.88;6.90;;;;;;;;;;5038949;28;20396;-86
2023/12/05 11:20:06;;;;;;;20.63;7.82;;;;;;;;;;5027284;28;20037;-86
2023/12/05 11:22:38;;;;;;;13.50;7.00;;;;;;;;;;5039724;28;20037;-86
2023/12/05 11:25:10;;;;;;;13.95;7.78;;;;;;;;;;5036210;28;20163;-87
2023/12/05 11:27:55;;;;;;;19.67;9.52;;;;;;;;;;5028265;28;20042;-86
2023/12/05 11:30:40;;;;;;;17.05;9.38;;;;;;;;;;5017825;28;20041;-86
2023/12/05 11:33:26;;;;;;;19.42;9.38;;;;;;;;;;5046123;28;20045;-86
2023/12/05 11:36:11;;;;;;;17.33;9.05;;;;;;;;;;5030342;28;20132;-86
2023/12/05 11:38:37;;;;;;;13.27;7.68;;;;;;;;;;5033060;28;20041;-85
2023/12/05 11:41:20;;;;;;;16.05;8.32;;;;;;;;;;5022555;28;20033;-84
2023/12/05 11:44:05;;;;;;;15.73;8.50;;;;;;;;;;5026072;28;20068;-83
2023/12/05 11:46:35;;;;;;;18.63;9.45;;;;;;;;;;5028883;28;20465;-83
2023/12/05 11:49:02;;;;;;;16.88;8.10;;;;;;;;;;5034163;28;20053;-83
2023/12/05 11:51:32;;;;;;;16.15;8.48;;;;;;;;;;5029521;28;20041;-83
2023/12/05 11:54:01;;;;;;;19.48;9.90;;;;;;;;;;5050305;28;20096;-83
2023/12/05 11:56:30;;;;;;;20.63;9.15;;;;;;;;;;5034901;28;20048;-88
2023/12/05 11:59:14;;;;;;;20.75;9.68;;;;;;;;;;5044778;28;20055;-84
2023/12/05 12:01:40;;;;;;;23.75;13.20;;;;;;;;;;5024309;28;20084;-83
2023/12/05 12:04:20;;;;;;;17.80;9.82;;;;;;;;;;5029466;28;20091;-84
2023/12/05 12:06:52;;;;;;;21.45;10.02;;;;;;;;;;5042006;28;20084;-84
2023/12/05 12:09:18;;;;;;;22.45;9.95;;;;;;;;;;5045690;28;20041;-83
2023/12/05 12:11:44;;;;;;;15.18;7.93;;;;;;;;;;5029514;28;20040;-82
2023/12/05 12:14:14;;;;;;;16.58;8.65;;;;;;;;;;5043261;28;20530;-82
2023/12/05 12:16:40;;;;;;;20.13;9.45;;;;;;;;;;5041855;28;20564;-82
2023/12/05 12:19:11;;;;;;;18.90;9.93;;;;;;;;;;5046984;28;20045;-82
2023/12/05 12:21:38;;;;;;;19.13;8.98;;;;;;;;;;5038047;28;20038;-83
2023/12/05 12:24:05;;;;;;;18.90;8.55;;;;;;;;;;5014413;28;20068;-83
2023/12/05 12:26:34;;;;;;;20.33;8.85;;;;;;;;;;5049558;28;20045;-83
2023/12/05 12:29:07;;;;;;;20.77;10.68;;;;;;;;;;5027554;28;20077;-82
2023/12/05 12:31:33;;;;;;;20.40;9.93;;;;;;;;;;5052495;28;20037;-82
2023/12/05 12:33:59;;;;;;;16.88;8.55;;;;;;;;;;5032251;28;20037;-82
2023/12/05 12:36:25;;;;;;;19.58;9.93;;;;;;;;;;5053499;28;20040;-82
2023/12/05 12:38:52;;;;;;;23.20;9.60;;;;;;;;;;5046548;28;20049;-83
2023/12/05 12:41:18;;;;;;;25.83;10.65;;;;;;;;;;5030709;28;20040;-83
2023/12/05 12:43:44;;;;;;;19.10;10.38;;;;;;;;;;5032345;28;20116;-84
2023/12/05 12:46:10;;;;;;;23.77;10.77;;;;;;;;;;5026240;28;20045;-84
2023/12/05 12:48:36;;;;;;;21.77;10.38;;;;;;;;;;5029863;28;20053;-84
2023/12/05 12:51:05;;;;;;;21.08;10.60;;;;;;;;;;5031867;28;20387;-84
2023/12/05 12:53:32;;;;;;;21.75;10.15;;;;;;;;;;5029394;28;20030;-84
2023/12/05 12:55:58;;;;;;;19.88;10.05;;;;;;;;;;5031958;28;20033;-84
2023/12/05 12:58:34;;;;;;;22.98;10.77;;;;;;;;;;5048016;28;20056;-83
2023/12/05 13:01:00;;;;;;;22.60;10.88;;;;;;;;;;5049142;28;20088;-84
2023/12/05 13:03:28;;;;;;;22.45;10.05;;;;;;;;;;5049105;28;20114;-84
2023/12/05 13:05:54;;;;;;;24.00;11.48;;;;;;;;;;5033216;28;20020;-83
2023/12/05 13:08:20;;;;;;;25.27;11.13;;;;;;;;;;5032712;28;20032;-84
2023/12/05 13:10:46;;;;;;;19.92;9.77;;;;;;;;;;5035597;28;20037;-84
2023/12/05 13:13:13;;;;;;;22.55;10.27;;;;;;;;;;5033161;28;20591;-84
2023/12/05 13:15:39;;;;;;;21.38;9.82;;;;;;;;;;5033481;28;20038;-83
2023/12/05 13:18:06;;;;;;;21.02;11.20;;;;;;;;;;5033444;28;20061;-83
2023/12/05 13:20:33;;;;;;;24.02;11.90;;;;;;;;;;5034231;28;20499;-84
2023/12/05 13:23:01;;;;;;;24.95;11.85;;;;;;;;;;5017528;28;20103;-83
2023/12/05 13:25:27;;;;;;;22.05;10.00;;;;;;;;;;5051983;28;20067;-83
2023/12/05 13:27:53;;;;;;;22.35;10.85;;;;;;;;;;5031761;28;20083;-84
2023/12/05 13:30:19;;;;;;;19.52;8.40;;;;;;;;;;5025863;28;20038;-86
2023/12/05 13:32:46;;;;;;;20.30;9.95;;;;;;;;;;5013244;28;20131;-84
2023/12/05 13:35:13;;;;;;;24.48;8.30;;;;;;;;;;5015928;28;20514;-86
2023/12/05 13:37:39;;;;;;;20.38;9.55;;;;;;;;;;5032538;28;20059;-86
2023/12/05 13:40:05;;;;;;;22.20;9.68;;;;;;;;;;5011164;28;20127;-87
2023/12/05 13:42:33;;;;;;;20.00;10.80;;;;;;;;;;5024022;28;20045;-84
2023/12/05 13:44:59;;;;;;;21.55;11.18;;;;;;;;;;5037260;28;20042;-85
2023/12/05 13:47:25;;;;;;;22.15;10.55;;;;;;;;;;5035702;28;20126;-84
2023/12/05 13:49:52;;;;;;;22.23;10.15;;;;;;;;;;5033584;28;20052;-84
2023/12/05 13:52:18;;;;;;;21.77;9.80;;;;;;;;;;5017337;28;20048;-85
2023/12/05 13:54:46;;;;;;;17.85;8.35;;;;;;;;;;5016514;28;20044;-84
2023/12/05 13:57:12;;;;;;;25.88;10.05;;;;;;;;;;5020074;28;20045;-84
2023/12/05 13:59:38;;;;;;;19.40;9.85;;;;;;;;;;5035415;28;20133;-84
2023/12/05 14:02:04;;;;;;;20.25;10.63;;;;;;;;;;5029332;28;20069;-84
2023/12/05 14:04:33;;;;;;;22.85;10.10;;;;;;;;;;5030435;28;20073;-85
2023/12/05 14:06:59;;;;;;;24.08;10.60;;;;;;;;;;5018181;28;20044;-85
2023/12/05 14:09:25;;;;;;;19.05;8.55;;;;;;;;;;5012622;28;20407;-87
2023/12/05 14:11:51;;;;;;;23.40;12.20;;;;;;;;;;5026606;28;20565;-86
2023/12/05 14:14:17;;;;;;;23.13;9.73;;;;;;;;;;5009633;28;20049;-86
2023/12/05 14:16:43;;;;;;;24.10;11.15;;;;;;;;;;5031810;28;20068;-86
2023/12/05 14:19:10;;;;;;;23.15;10.48;;;;;;;;;;5029564;28;20037;-86
2023/12/05 14:21:36;;;;;;;22.17;10.32;;;;;;;;;;5030306;28;20041;-86
2023/12/05 14:24:02;;;;;;;21.17;9.40;;;;;;;;;;5031758;28;20029;-86
2023/12/05 14:26:28;;;;;;;24.50;10.60;;;;;;;;;;5012982;28;20051;-85
2023/12/05 14:28:54;;;;;;;27.23;11.60;;;;;;;;;;5026685;28;20040;-85
2023/12/05 14:31:20;;;;;;;28.33;12.43;;;;;;;;;;5012177;28;20044;-85